Time,TemperatureF,DewpointF,PressureIn,WindDirection,WindDirectionDegrees,WindSpeedMPH,WindSpeedGustMPH,Humidity,HourlyPrecipIn,Conditions,Clouds,dailyrainin,SolarRadiationWatts/m^2,SoftwareType,DateUTC
2013-08-27 00:00:00,80.9,76.7,29.96,ESE,103,5.0,11.2,87,0.00,,---,0.79,0.00,VWS V14.01,2013-08-27 05:00:00,
2013-08-27 00:01:00,80.9,76.7,29.96,ESE,107,4.0,11.2,87,0.00,,---,0.79,0.00,VWS V14.01,2013-08-27 05:01:00,
2013-08-27 00:05:00,80.9,76.7,29.96,ESE,106,5.0,10.2,87,0.00,,---,0.00,0.00,VWS V14.01,2013-08-27 05:05:00,
2013-08-27 00:06:00,80.9,76.7,29.96,ESE,106,5.0,10.2,87,0.00,,---,0.00,0.00,VWS V14.01,2013-08-27 05:06:00,
2013-08-27 00:10:00,80.9,76.7,29.96,East,101,2.0,9.2,87,0.00,,---,0.00,0.00,VWS V14.01,2013-08-27 05:10:00,
2013-08-27 00:11:00,80.9,76.7,29.96,East,101,2.0,9.2,87,0.00,,---,0.00,0.00,VWS V14.01,2013-08-27 05:11:00,
2013-08-27 00:15:00,80.9,76.7,29.96,ESE,105,7.0,8.2,87,0.00,,---,0.00,0.00,VWS V14.01,2013-08-27 05:15:00,
2013-08-27 00:16:00,80.9,76.7,29.96,ESE,105,7.0,8.2,87,0.00,,---,0.00,0.00,VWS V14.01,2013-08-27 05:16:00,
2013-08-27 00:20:00,80.9,76.7,29.96,SE,128,3.0,8.2,87,0.00,,---,0.00,0.00,VWS V14.01,2013-08-27 05:20:00,
2013-08-27 00:21:00,80.9,76.7,29.96,SE,128,3.0,8.2,87,0.00,,---,0.00,0.00,VWS V14.01,2013-08-27 05:21:00,
2013-08-27 00:25:00,80.9,76.7,29.96,ESE,105,3.0,10.2,87,0.00,,---,0.00,0.00,VWS V14.01,2013-08-27 05:25:00,
2013-08-27 00:26:00,80.9,76.7,29.96,ESE,105,2.0,10.2,87,0.00,,---,0.00,0.00,VWS V14.01,2013-08-27 05:26:00,
2013-08-27 00:30:00,81.2,77.0,29.96,ESE,111,6.0,11.2,87,0.00,,---,0.00,0.00,VWS V14.01,2013-08-27 05:30:00,
2013-08-27 00:31:00,81.2,77.0,29.96,East,100,5.0,11.2,87,0.00,,---,0.00,0.00,VWS V14.01,2013-08-27 05:31:00,
2013-08-27 00:35:00,81.4,76.8,29.96,ESE,106,6.0,11.2,86,0.00,,---,0.00,0.00,VWS V14.01,2013-08-27 05:35:00,
2013-08-27 00:36:00,81.4,76.8,29.96,ESE,114,9.0,11.2,86,0.00,,---,0.00,0.00,VWS V14.01,2013-08-27 05:36:00,
2013-08-27 00:40:00,81.6,77.0,29.96,East,94,6.0,11.2,86,0.00,,---,0.00,0.00,VWS V14.01,2013-08-27 05:40:00,
2013-08-27 00:41:00,81.6,77.0,29.96,East,94,6.0,11.2,86,0.00,,---,0.00,0.00,VWS V14.01,2013-08-27 05:41:00,
2013-08-27 00:45:00,81.6,77.0,29.95,ESE,103,4.0,11.2,86,0.00,,---,0.00,0.00,VWS V14.01,2013-08-27 05:45:00,
2013-08-27 00:46:00,81.6,77.0,29.95,ESE,103,5.0,11.2,86,0.00,,---,0.00,0.00,VWS V14.01,2013-08-27 05:46:00,
2013-08-27 00:50:00,82.0,77.4,29.95,ESE,108,3.0,8.2,86,0.00,,---,0.00,0.00,VWS V14.01,2013-08-27 05:50:00,
2013-08-27 00:51:00,82.0,77.4,29.95,ESE,108,4.0,8.2,86,0.00,,---,0.00,0.00,VWS V14.01,2013-08-27 05:51:00,
2013-08-27 00:55:00,81.6,77.0,29.95,ESE,105,6.0,10.2,86,0.00,,---,0.00,0.00,VWS V14.01,2013-08-27 05:55:00,
2013-08-27 00:56:00,81.6,77.0,29.95,ESE,103,7.0,10.2,86,0.00,,---,0.00,0.00,VWS V14.01,2013-08-27 05:56:00,
2013-08-27 01:00:00,81.2,77.0,29.95,ESE,103,3.0,9.2,87,0.00,,---,0.00,0.00,VWS V14.01,2013-08-27 06:00:00,
2013-08-27 01:01:00,81.2,77.0,29.95,ESE,103,1.0,9.2,87,0.00,,---,0.00,0.00,VWS V14.01,2013-08-27 06:01:00,
2013-08-27 01:05:00,81.2,77.0,29.95,East,84,6.0,10.2,87,0.00,,---,0.00,0.00,VWS V14.01,2013-08-27 06:05:00,
2013-08-27 01:06:00,81.2,77.0,29.95,East,84,5.0,10.2,87,0.00,,---,0.00,0.00,VWS V14.01,2013-08-27 06:06:00,
2013-08-27 01:10:00,81.2,77.0,29.95,East,95,5.0,8.2,87,0.00,,---,0.00,0.00,VWS V14.01,2013-08-27 06:10:00,
2013-08-27 01:11:00,81.2,77.0,29.95,East,95,5.0,8.2,87,0.00,,---,0.00,0.00,VWS V14.01,2013-08-27 06:11:00,
2013-08-27 01:15:00,81.2,77.0,29.95,East,79,3.0,7.2,87,0.00,,---,0.00,0.00,VWS V14.01,2013-08-27 06:15:00,
2013-08-27 01:16:00,81.2,77.0,29.95,East,79,5.0,7.2,87,0.00,,---,0.00,0.00,VWS V14.01,2013-08-27 06:16:00,
2013-08-27 01:20:00,81.2,77.0,29.95,ESE,111,5.0,11.2,87,0.00,,---,0.00,0.00,VWS V14.01,2013-08-27 06:20:00,
2013-08-27 01:21:00,81.2,77.0,29.95,ESE,111,4.0,11.2,87,0.00,,---,0.00,0.00,VWS V14.01,2013-08-27 06:21:00,
2013-08-27 01:25:00,81.2,77.0,29.95,ESE,107,5.0,10.2,87,0.00,,---,0.00,0.00,VWS V14.01,2013-08-27 06:25:00,
2013-08-27 01:26:00,81.2,77.0,29.95,ESE,107,4.0,10.2,87,0.00,,---,0.00,0.00,VWS V14.01,2013-08-27 06:26:00,
2013-08-27 01:30:00,81.2,77.3,29.95,East,94,2.0,10.2,88,0.00,,---,0.00,0.00,VWS V14.01,2013-08-27 06:30:00,
2013-08-27 01:31:00,81.2,77.3,29.95,East,94,2.0,10.2,88,0.00,,---,0.00,0.00,VWS V14.01,2013-08-27 06:31:00,
2013-08-27 01:35:00,81.4,77.5,29.95,ESE,109,8.0,11.2,88,0.00,,---,0.00,0.00,VWS V14.01,2013-08-27 06:35:00,
2013-08-27 01:36:00,81.4,77.5,29.95,ESE,109,6.0,11.2,88,0.00,,---,0.00,0.00,VWS V14.01,2013-08-27 06:36:00,
2013-08-27 01:40:00,81.4,77.5,29.95,East,92,4.0,10.2,88,0.00,,---,0.00,0.00,VWS V14.01,2013-08-27 06:40:00,
2013-08-27 01:41:00,81.4,77.5,29.95,East,92,3.0,10.2,88,0.00,,---,0.00,0.00,VWS V14.01,2013-08-27 06:41:00,
2013-08-27 01:45:00,81.6,78.1,29.94,East,95,4.0,16.2,89,0.00,,---,0.00,0.00,VWS V14.01,2013-08-27 06:45:00,
2013-08-27 01:46:00,81.6,78.1,29.94,East,95,3.0,16.2,89,0.00,,---,0.00,0.00,VWS V14.01,2013-08-27 06:46:00,
2013-08-27 01:50:00,81.6,78.1,29.94,ESE,113,3.0,12.2,89,0.00,,---,0.00,0.00,VWS V14.01,2013-08-27 06:50:00,
2013-08-27 01:51:00,81.6,78.1,29.94,ESE,113,3.0,12.2,89,0.00,,---,0.00,0.00,VWS V14.01,2013-08-27 06:51:00,
2013-08-27 01:55:00,82.0,78.1,29.94,East,98,6.0,12.2,88,0.00,,---,0.00,0.00,VWS V14.01,2013-08-27 06:55:00,
2013-08-27 01:56:00,82.0,78.1,29.94,East,98,5.0,12.2,88,0.00,,---,0.00,0.00,VWS V14.01,2013-08-27 06:56:00,
2013-08-27 02:00:00,82.2,78.3,29.95,ESE,120,3.0,10.2,88,0.00,,---,0.00,0.00,VWS V14.01,2013-08-27 07:00:00,
2013-08-27 02:01:00,82.2,78.3,29.95,ESE,120,5.0,10.2,88,0.00,,---,0.00,0.00,VWS V14.01,2013-08-27 07:01:00,
2013-08-27 02:05:00,82.4,78.5,29.95,ESE,109,5.0,12.2,88,0.00,,---,0.00,0.00,VWS V14.01,2013-08-27 07:05:00,
2013-08-27 02:06:00,82.4,78.5,29.95,SE,128,6.0,12.2,88,0.00,,---,0.00,0.00,VWS V14.01,2013-08-27 07:06:00,
2013-08-27 02:10:00,82.4,78.5,29.95,East,86,5.0,10.2,88,0.00,,---,0.00,0.00,VWS V14.01,2013-08-27 07:10:00,
2013-08-27 02:11:00,82.4,78.5,29.95,East,84,5.0,10.2,88,0.00,,---,0.00,0.00,VWS V14.01,2013-08-27 07:11:00,
2013-08-27 02:15:00,82.4,78.5,29.94,ESE,103,6.0,10.2,88,0.00,,---,0.00,0.00,VWS V14.01,2013-08-27 07:15:00,
2013-08-27 02:16:00,82.4,78.5,29.94,ESE,103,3.0,10.2,88,0.00,,---,0.00,0.00,VWS V14.01,2013-08-27 07:16:00,
2013-08-27 02:20:00,82.2,78.3,29.94,East,88,7.0,12.2,88,0.00,,---,0.00,0.00,VWS V14.01,2013-08-27 07:20:00,
2013-08-27 02:21:00,82.2,78.3,29.94,ENE,74,7.0,12.2,88,0.00,,---,0.00,0.00,VWS V14.01,2013-08-27 07:21:00,
2013-08-27 02:25:00,82.0,78.4,29.94,East,98,7.0,11.2,89,0.00,,---,0.00,0.00,VWS V14.01,2013-08-27 07:25:00,
2013-08-27 02:26:00,82.0,78.4,29.94,ESE,104,6.0,11.2,89,0.00,,---,0.00,0.00,VWS V14.01,2013-08-27 07:26:00,
2013-08-27 02:30:00,81.8,78.2,29.95,South,175,6.0,16.2,89,0.00,,---,0.00,0.00,VWS V14.01,2013-08-27 07:30:00,
2013-08-27 02:31:00,81.8,78.2,29.95,SE,132,5.0,16.2,89,0.00,,---,0.00,0.00,VWS V14.01,2013-08-27 07:31:00,
2013-08-27 02:35:00,79.8,73.8,29.95,SSW,205,2.0,12.2,82,0.00,,---,0.00,0.00,VWS V14.01,2013-08-27 07:35:00,
2013-08-27 02:36:00,79.8,73.8,29.95,SSW,205,3.0,12.2,82,0.00,,---,0.00,0.00,VWS V14.01,2013-08-27 07:36:00,
2013-08-27 02:40:00,79.0,73.4,29.95,SSE,159,0.0,8.2,83,0.00,,---,0.00,0.00,VWS V14.01,2013-08-27 07:40:00,
2013-08-27 02:41:00,79.0,73.4,29.95,SSE,159,0.0,8.2,83,0.00,,---,0.00,0.00,VWS V14.01,2013-08-27 07:41:00,
2013-08-27 02:45:00,78.8,73.2,29.94,SSE,159,1.0,5.2,83,0.00,,---,0.00,0.00,VWS V14.01,2013-08-27 07:45:00,
2013-08-27 02:46:00,78.8,73.2,29.94,SSE,159,0.0,5.2,83,0.00,,---,0.00,0.00,VWS V14.01,2013-08-27 07:46:00,
2013-08-27 02:50:00,78.5,73.3,29.94,SSE,159,1.0,5.2,84,0.00,,---,0.00,0.00,VWS V14.01,2013-08-27 07:50:00,
2013-08-27 02:51:00,78.5,73.3,29.94,SSE,159,2.0,5.2,84,0.00,,---,0.00,0.00,VWS V14.01,2013-08-27 07:51:00,
2013-08-27 02:55:00,78.3,73.1,29.94,South,190,7.0,9.2,84,0.00,,---,0.00,0.00,VWS V14.01,2013-08-27 07:55:00,
2013-08-27 02:56:00,78.3,73.1,29.94,SSW,205,4.0,9.2,84,0.00,,---,0.00,0.00,VWS V14.01,2013-08-27 07:56:00,
2013-08-27 03:00:00,78.1,72.9,29.93,SSW,203,3.0,8.2,84,0.00,,---,0.00,0.00,VWS V14.01,2013-08-27 08:00:00,
2013-08-27 03:01:00,78.1,72.9,29.93,SSW,203,1.0,8.2,84,0.00,,---,0.00,0.00,VWS V14.01,2013-08-27 08:01:00,
2013-08-27 03:05:00,78.1,73.2,29.93,SSW,203,0.0,4.2,85,0.00,,---,0.00,0.00,VWS V14.01,2013-08-27 08:05:00,
2013-08-27 03:06:00,78.1,73.2,29.93,SSW,203,0.0,4.2,85,0.00,,---,0.00,0.00,VWS V14.01,2013-08-27 08:06:00,
2013-08-27 03:10:00,78.1,73.2,29.93,SSW,197,0.0,3.2,85,0.00,,---,0.00,0.00,VWS V14.01,2013-08-27 08:10:00,
2013-08-27 03:11:00,78.1,73.2,29.93,SSW,197,1.0,3.2,85,0.00,,---,0.00,0.00,VWS V14.01,2013-08-27 08:11:00,
2013-08-27 03:15:00,78.1,73.6,29.93,SSW,197,1.0,2.2,86,0.00,,---,0.00,0.00,VWS V14.01,2013-08-27 08:15:00,
2013-08-27 03:16:00,78.1,73.6,29.93,SSW,197,0.0,2.2,86,0.00,,---,0.00,0.00,VWS V14.01,2013-08-27 08:16:00,
2013-08-27 03:20:00,78.3,74.1,29.93,SSE,167,0.0,3.2,87,0.00,,---,0.00,0.00,VWS V14.01,2013-08-27 08:20:00,
2013-08-27 03:21:00,78.3,74.1,29.93,SSE,167,0.0,3.2,87,0.00,,---,0.00,0.00,VWS V14.01,2013-08-27 08:21:00,
2013-08-27 03:25:00,78.8,74.9,29.93,SSE,167,0.0,2.2,88,0.00,,---,0.00,0.00,VWS V14.01,2013-08-27 08:25:00,
2013-08-27 03:26:00,78.8,74.9,29.93,SSE,167,0.0,2.2,88,0.00,,---,0.00,0.00,VWS V14.01,2013-08-27 08:26:00,
2013-08-27 03:30:00,80.1,77.2,29.92,East,88,6.0,8.2,91,0.00,,---,0.00,0.00,VWS V14.01,2013-08-27 08:30:00,
2013-08-27 03:31:00,80.1,77.2,29.92,East,79,4.0,6.2,91,0.00,,---,0.00,0.00,VWS V14.01,2013-08-27 08:31:00,
2013-08-27 03:35:00,81.4,78.5,29.92,East,96,4.0,12.2,91,0.00,,---,0.00,0.00,VWS V14.01,2013-08-27 08:35:00,
2013-08-27 03:36:00,81.4,78.5,29.92,East,96,3.0,12.2,91,0.00,,---,0.00,0.00,VWS V14.01,2013-08-27 08:36:00,
2013-08-27 03:40:00,81.8,78.6,29.92,ESE,107,4.0,8.2,90,0.00,,---,0.00,0.00,VWS V14.01,2013-08-27 08:40:00,
2013-08-27 03:41:00,81.8,78.6,29.92,ESE,104,4.0,8.2,90,0.00,,---,0.00,0.00,VWS V14.01,2013-08-27 08:41:00,
2013-08-27 03:45:00,82.0,78.8,29.92,East,91,4.0,11.2,90,0.00,,---,0.00,0.00,VWS V14.01,2013-08-27 08:45:00,
2013-08-27 03:46:00,82.0,78.8,29.92,East,92,6.0,11.2,90,0.00,,---,0.00,0.00,VWS V14.01,2013-08-27 08:46:00,
2013-08-27 03:50:00,81.8,78.6,29.92,SE,133,2.0,8.2,90,0.00,,---,0.00,0.00,VWS V14.01,2013-08-27 08:50:00,
2013-08-27 03:51:00,81.8,78.6,29.92,SE,133,3.0,8.2,90,0.00,,---,0.00,0.00,VWS V14.01,2013-08-27 08:51:00,
2013-08-27 03:55:00,82.0,78.8,29.92,East,84,2.0,6.2,90,0.00,,---,0.00,0.00,VWS V14.01,2013-08-27 08:55:00,
2013-08-27 03:56:00,82.0,78.8,29.92,East,84,2.0,6.2,90,0.00,,---,0.00,0.00,VWS V14.01,2013-08-27 08:56:00,
2013-08-27 04:00:00,82.4,78.8,29.92,ESE,105,10.0,11.2,89,0.00,,---,0.00,0.00,VWS V14.01,2013-08-27 09:00:00,
2013-08-27 04:01:00,82.4,78.8,29.92,ENE,61,4.0,10.2,89,0.00,,---,0.00,0.00,VWS V14.01,2013-08-27 09:01:00,
2013-08-27 04:05:00,82.2,78.6,29.92,East,82,6.0,13.2,89,0.00,,---,0.00,0.00,VWS V14.01,2013-08-27 09:05:00,
2013-08-27 04:06:00,82.2,78.6,29.92,ENE,74,8.0,13.2,89,0.00,,---,0.00,0.00,VWS V14.01,2013-08-27 09:06:00,
2013-08-27 04:10:00,82.0,78.8,29.92,East,92,4.0,12.2,90,0.00,,---,0.00,0.00,VWS V14.01,2013-08-27 09:10:00,
2013-08-27 04:11:00,82.0,78.8,29.92,ENE,61,3.0,12.2,90,0.00,,---,0.00,0.00,VWS V14.01,2013-08-27 09:11:00,
2013-08-27 04:15:00,82.0,78.8,29.92,East,101,6.0,10.2,90,0.00,,---,0.00,0.00,VWS V14.01,2013-08-27 09:15:00,
2013-08-27 04:16:00,82.0,78.8,29.92,ESE,104,9.0,10.2,90,0.00,,---,0.00,0.00,VWS V14.01,2013-08-27 09:16:00,
2013-08-27 04:20:00,82.0,79.1,29.92,East,97,6.0,11.2,91,0.00,,---,0.00,0.00,VWS V14.01,2013-08-27 09:20:00,
2013-08-27 04:21:00,82.0,79.1,29.92,East,88,6.0,11.2,91,0.00,,---,0.00,0.00,VWS V14.01,2013-08-27 09:21:00,
2013-08-27 04:25:00,82.2,79.3,29.92,East,92,11.0,12.2,91,0.00,,---,0.00,0.00,VWS V14.01,2013-08-27 09:25:00,
2013-08-27 04:26:00,82.2,79.3,29.92,ENE,69,4.0,12.2,91,0.00,,---,0.00,0.00,VWS V14.01,2013-08-27 09:26:00,
2013-08-27 04:30:00,82.2,79.3,29.92,East,101,5.0,13.2,91,0.00,,---,0.00,0.00,VWS V14.01,2013-08-27 09:30:00,
2013-08-27 04:31:00,82.2,79.3,29.92,ESE,103,3.0,13.2,91,0.00,,---,0.00,0.00,VWS V14.01,2013-08-27 09:31:00,
2013-08-27 04:35:00,82.2,79.0,29.92,East,100,6.0,12.2,90,0.00,,---,0.00,0.00,VWS V14.01,2013-08-27 09:35:00,
2013-08-27 04:36:00,82.2,79.0,29.92,ESE,105,5.0,12.2,90,0.00,,---,0.00,0.00,VWS V14.01,2013-08-27 09:36:00,
2013-08-27 04:40:00,82.2,79.0,29.92,ESE,115,5.0,14.2,90,0.00,,---,0.00,0.00,VWS V14.01,2013-08-27 09:40:00,
2013-08-27 04:41:00,82.2,79.0,29.92,East,94,4.0,14.2,90,0.00,,---,0.00,0.00,VWS V14.01,2013-08-27 09:41:00,
2013-08-27 04:45:00,82.4,79.2,29.91,ESE,111,7.0,10.2,90,0.00,,---,0.00,0.00,VWS V14.01,2013-08-27 09:45:00,
2013-08-27 04:46:00,82.4,79.2,29.91,ESE,112,3.0,10.2,90,0.00,,---,0.00,0.00,VWS V14.01,2013-08-27 09:46:00,
2013-08-27 04:50:00,82.6,79.0,29.91,SE,129,10.0,13.2,89,0.00,,---,0.00,0.00,VWS V14.01,2013-08-27 09:50:00,
2013-08-27 04:51:00,82.6,79.0,29.91,ESE,119,10.0,13.2,89,0.00,,---,0.00,0.00,VWS V14.01,2013-08-27 09:51:00,
2013-08-27 04:55:00,83.0,79.1,29.91,SE,136,8.0,11.2,88,0.00,,---,0.00,0.00,VWS V14.01,2013-08-27 09:55:00,
2013-08-27 04:56:00,83.0,79.1,29.91,ESE,105,6.0,11.2,88,0.00,,---,0.00,0.00,VWS V14.01,2013-08-27 09:56:00,
2013-08-27 05:00:00,83.2,78.9,29.91,ESE,115,4.0,9.2,87,0.00,,---,0.00,0.00,VWS V14.01,2013-08-27 10:00:00,
2013-08-27 05:01:00,83.2,79.3,29.91,ESE,115,1.0,9.2,88,0.00,,---,0.00,0.00,VWS V14.01,2013-08-27 10:01:00,
2013-08-27 05:05:00,83.2,78.6,29.91,ESE,121,4.0,8.2,86,0.00,,---,0.00,0.00,VWS V14.01,2013-08-27 10:05:00,
2013-08-27 05:06:00,83.2,78.6,29.91,ESE,121,5.0,8.2,86,0.00,,---,0.00,0.00,VWS V14.01,2013-08-27 10:06:00,
2013-08-27 05:10:00,83.2,77.9,29.91,ESE,114,9.0,12.2,84,0.00,,---,0.00,0.00,VWS V14.01,2013-08-27 10:10:00,
2013-08-27 05:11:00,83.2,77.9,29.91,SE,131,10.0,12.2,84,0.00,,---,0.00,0.00,VWS V14.01,2013-08-27 10:11:00,
2013-08-27 05:15:00,83.0,78.0,29.92,SE,144,6.0,11.2,85,0.00,,---,0.00,0.00,VWS V14.01,2013-08-27 10:15:00,
2013-08-27 05:16:00,83.0,78.0,29.92,SSE,147,5.0,11.2,85,0.00,,---,0.00,0.00,VWS V14.01,2013-08-27 10:16:00,
2013-08-27 05:20:00,82.8,78.2,29.92,SE,146,7.0,11.2,86,0.00,,---,0.00,0.00,VWS V14.01,2013-08-27 10:20:00,
2013-08-27 05:21:00,82.8,78.2,29.92,SE,136,4.0,11.2,86,0.00,,---,0.00,0.00,VWS V14.01,2013-08-27 10:21:00,
2013-08-27 05:25:00,82.6,77.6,29.92,SE,125,4.0,13.2,85,0.00,,---,0.00,0.00,VWS V14.01,2013-08-27 10:25:00,
2013-08-27 05:26:00,82.6,77.6,29.92,SE,125,5.0,13.2,85,0.00,,---,0.00,0.00,VWS V14.01,2013-08-27 10:26:00,
2013-08-27 05:30:00,82.6,77.6,29.92,SSE,153,4.0,12.2,85,0.00,,---,0.00,0.00,VWS V14.01,2013-08-27 10:30:00,
2013-08-27 05:31:00,82.6,77.6,29.92,SSE,153,3.0,12.2,85,0.00,,---,0.00,0.00,VWS V14.01,2013-08-27 10:31:00,
2013-08-27 05:35:00,82.6,78.0,29.92,SE,130,6.0,11.2,86,0.00,,---,0.00,0.00,VWS V14.01,2013-08-27 10:35:00,
2013-08-27 05:36:00,82.6,78.0,29.92,SE,130,4.0,11.2,86,0.00,,---,0.00,0.00,VWS V14.01,2013-08-27 10:36:00,
2013-08-27 05:40:00,82.6,78.0,29.92,SSE,165,3.0,11.2,86,0.00,,---,0.00,0.00,VWS V14.01,2013-08-27 10:40:00,
2013-08-27 05:41:00,82.6,78.0,29.92,SSE,165,6.0,11.2,86,0.00,,---,0.00,0.00,VWS V14.01,2013-08-27 10:41:00,
2013-08-27 05:45:00,82.6,78.3,29.92,SE,137,5.0,12.2,87,0.00,,---,0.00,0.00,VWS V14.01,2013-08-27 10:45:00,
2013-08-27 05:46:00,82.6,78.3,29.92,SE,137,4.0,12.2,87,0.00,,---,0.00,0.00,VWS V14.01,2013-08-27 10:46:00,
2013-08-27 05:50:00,82.4,77.8,29.92,SE,136,4.0,10.2,86,0.00,,---,0.00,0.00,VWS V14.01,2013-08-27 10:50:00,
2013-08-27 05:51:00,82.4,77.8,29.92,SE,137,5.0,10.2,86,0.00,,---,0.00,0.00,VWS V14.01,2013-08-27 10:51:00,
2013-08-27 05:55:00,82.4,77.8,29.92,SSE,152,6.0,13.2,86,0.00,,---,0.00,0.00,VWS V14.01,2013-08-27 10:55:00,
2013-08-27 05:56:00,82.4,77.8,29.92,SSE,153,6.0,13.2,86,0.00,,---,0.00,0.00,VWS V14.01,2013-08-27 10:56:00,
2013-08-27 06:00:00,82.6,78.0,29.93,SE,138,6.0,11.2,86,0.00,,---,0.00,0.00,VWS V14.01,2013-08-27 11:00:00,
2013-08-27 06:01:00,82.6,78.0,29.93,SE,138,9.0,11.2,86,0.00,,---,0.00,0.00,VWS V14.01,2013-08-27 11:01:00,
2013-08-27 06:05:00,83.0,78.4,29.93,SE,132,4.0,12.2,86,0.00,,---,0.00,0.00,VWS V14.01,2013-08-27 11:05:00,
2013-08-27 06:06:00,83.0,78.4,29.93,SE,132,4.0,12.2,86,0.00,,---,0.00,0.00,VWS V14.01,2013-08-27 11:06:00,
2013-08-27 06:10:00,83.4,78.4,29.93,SE,132,0.0,7.2,85,0.00,,---,0.00,0.00,VWS V14.01,2013-08-27 11:10:00,
2013-08-27 06:11:00,83.4,78.4,29.93,SE,132,1.0,7.2,85,0.00,,---,0.00,0.00,VWS V14.01,2013-08-27 11:11:00,
2013-08-27 06:15:00,83.4,78.4,29.93,SE,134,2.0,9.2,85,0.00,,---,0.00,0.00,VWS V14.01,2013-08-27 11:15:00,
2013-08-27 06:16:00,83.4,78.4,29.93,SE,134,3.0,9.2,85,0.00,,---,0.00,0.00,VWS V14.01,2013-08-27 11:16:00,
2013-08-27 06:20:00,83.2,78.6,29.93,SE,132,4.0,10.2,86,0.00,,---,0.00,0.00,VWS V14.01,2013-08-27 11:20:00,
2013-08-27 06:21:00,83.2,78.6,29.93,SE,132,3.0,10.2,86,0.00,,---,0.00,0.00,VWS V14.01,2013-08-27 11:21:00,
2013-08-27 06:25:00,83.0,78.4,29.93,SE,131,6.0,10.2,86,0.00,,---,0.00,0.00,VWS V14.01,2013-08-27 11:25:00,
2013-08-27 06:26:00,83.0,78.4,29.93,SE,134,4.0,10.2,86,0.00,,---,0.00,0.00,VWS V14.01,2013-08-27 11:26:00,
2013-08-27 06:30:00,82.6,77.6,29.93,SE,124,7.0,10.2,85,0.00,,---,0.00,0.00,VWS V14.01,2013-08-27 11:30:00,
2013-08-27 06:31:00,82.6,77.6,29.93,ESE,123,5.0,10.2,85,0.00,,---,0.00,0.00,VWS V14.01,2013-08-27 11:31:00,
2013-08-27 06:35:00,82.6,77.3,29.93,SE,135,4.0,11.2,84,0.00,,---,0.00,0.00,VWS V14.01,2013-08-27 11:35:00,
2013-08-27 06:36:00,82.6,77.3,29.93,SE,136,4.0,11.2,84,0.00,,---,0.00,0.00,VWS V14.01,2013-08-27 11:36:00,
2013-08-27 06:40:00,82.8,77.8,29.93,SE,140,6.0,12.2,85,0.00,,---,0.00,0.00,VWS V14.01,2013-08-27 11:40:00,
2013-08-27 06:41:00,82.8,77.8,29.93,SSE,151,1.0,12.2,85,0.00,,---,0.00,0.00,VWS V14.01,2013-08-27 11:41:00,
2013-08-27 06:45:00,82.6,77.3,29.95,ESE,122,10.0,16.2,84,0.00,,---,0.00,0.00,VWS V14.01,2013-08-27 11:45:00,
2013-08-27 06:46:00,82.6,77.6,29.95,ESE,117,10.0,16.2,85,0.00,,---,0.00,0.00,VWS V14.01,2013-08-27 11:46:00,
2013-08-27 06:50:00,81.2,74.8,29.95,SE,130,3.0,16.2,81,0.00,,---,0.00,0.00,VWS V14.01,2013-08-27 11:50:00,
2013-08-27 06:51:00,81.2,74.8,29.95,SE,130,3.0,16.2,81,0.00,,---,0.00,0.00,VWS V14.01,2013-08-27 11:51:00,
2013-08-27 06:55:00,81.4,75.4,29.95,SE,130,9.0,11.2,82,0.00,,---,0.00,0.00,VWS V14.01,2013-08-27 11:55:00,
2013-08-27 06:56:00,81.4,75.4,29.95,ESE,119,4.0,11.2,82,0.00,,---,0.00,0.00,VWS V14.01,2013-08-27 11:56:00,
2013-08-27 07:00:00,81.8,76.1,29.95,SE,125,2.0,10.2,83,0.00,,---,0.00,0.00,VWS V14.01,2013-08-27 12:00:00,
2013-08-27 07:01:00,81.8,76.1,29.95,SE,125,4.0,10.2,83,0.00,,---,0.00,0.00,VWS V14.01,2013-08-27 12:01:00,
2013-08-27 07:05:00,81.8,75.8,29.95,East,91,0.0,8.2,82,0.00,,---,0.00,0.00,VWS V14.01,2013-08-27 12:05:00,
2013-08-27 07:06:00,81.8,75.8,29.95,East,91,1.0,8.2,82,0.00,,---,0.00,0.00,VWS V14.01,2013-08-27 12:06:00,
2013-08-27 07:10:00,82.0,76.0,29.95,East,91,2.0,5.2,82,0.00,,---,0.00,0.00,VWS V14.01,2013-08-27 12:10:00,
2013-08-27 07:11:00,82.0,76.0,29.95,East,91,3.0,5.2,82,0.00,,---,0.00,0.00,VWS V14.01,2013-08-27 12:11:00,
2013-08-27 07:15:00,81.6,75.9,29.96,East,87,3.0,6.2,83,0.00,,---,0.00,7.00,VWS V14.01,2013-08-27 12:15:00,
2013-08-27 07:16:00,81.6,75.9,29.96,East,87,2.0,6.2,83,0.00,,---,0.00,5.00,VWS V14.01,2013-08-27 12:16:00,
2013-08-27 07:20:00,81.1,76.2,29.96,East,86,1.0,5.2,85,0.00,,---,0.00,9.00,VWS V14.01,2013-08-27 12:20:00,
2013-08-27 07:21:00,81.1,76.2,29.96,East,86,0.0,5.2,85,0.00,,---,0.00,9.00,VWS V14.01,2013-08-27 12:21:00,
2013-08-27 07:25:00,80.9,76.3,29.96,East,86,0.0,4.2,86,0.00,,---,0.00,12.00,VWS V14.01,2013-08-27 12:25:00,
2013-08-27 07:26:00,80.9,76.3,29.96,East,86,0.0,4.2,86,0.00,,---,0.00,12.00,VWS V14.01,2013-08-27 12:26:00,
2013-08-27 07:30:00,80.7,76.5,29.96,East,86,1.0,2.2,87,0.00,,---,0.00,16.00,VWS V14.01,2013-08-27 12:30:00,
2013-08-27 07:31:00,80.7,76.5,29.96,East,86,1.0,2.2,87,0.00,,---,0.00,16.00,VWS V14.01,2013-08-27 12:31:00,
2013-08-27 07:35:00,80.7,76.1,29.96,East,86,2.0,5.2,86,0.00,,---,0.00,23.00,VWS V14.01,2013-08-27 12:35:00,
2013-08-27 07:36:00,80.7,76.1,29.96,East,86,3.0,5.2,86,0.00,,---,0.00,21.00,VWS V14.01,2013-08-27 12:36:00,
2013-08-27 07:40:00,80.9,76.7,29.96,ESE,105,2.0,8.2,87,0.00,,---,0.00,30.00,VWS V14.01,2013-08-27 12:40:00,
2013-08-27 07:41:00,80.9,76.7,29.96,ESE,105,3.0,8.2,87,0.00,,---,0.00,30.00,VWS V14.01,2013-08-27 12:41:00,
2013-08-27 07:45:00,81.2,77.0,29.96,ESE,103,5.0,8.2,87,0.00,,---,0.00,44.00,VWS V14.01,2013-08-27 12:45:00,
2013-08-27 07:46:00,81.2,77.0,29.96,ESE,103,4.0,8.2,87,0.00,,---,0.00,44.00,VWS V14.01,2013-08-27 12:46:00,
2013-08-27 07:50:00,81.4,77.2,29.96,SE,132,6.0,8.2,87,0.00,,---,0.00,49.00,VWS V14.01,2013-08-27 12:50:00,
2013-08-27 07:51:00,81.4,77.2,29.96,SE,132,2.0,8.2,87,0.00,,---,0.00,49.00,VWS V14.01,2013-08-27 12:51:00,
2013-08-27 07:55:00,82.0,77.4,29.96,SE,143,3.0,8.2,86,0.00,,---,0.00,54.00,VWS V14.01,2013-08-27 12:55:00,
2013-08-27 07:56:00,82.0,77.4,29.96,SE,143,3.0,8.2,86,0.00,,---,0.00,54.00,VWS V14.01,2013-08-27 12:56:00,
2013-08-27 08:00:00,82.8,77.5,29.96,SE,144,5.0,10.2,84,0.00,,---,0.00,58.00,VWS V14.01,2013-08-27 13:00:00,
2013-08-27 08:01:00,82.8,77.5,29.96,SE,144,2.0,10.2,84,0.00,,---,0.00,58.00,VWS V14.01,2013-08-27 13:01:00,
2013-08-27 08:05:00,82.8,77.5,29.96,SE,143,1.0,6.2,84,0.00,,---,0.00,54.00,VWS V14.01,2013-08-27 13:05:00,
2013-08-27 08:06:00,82.8,77.5,29.96,SE,143,3.0,6.2,84,0.00,,---,0.00,54.00,VWS V14.01,2013-08-27 13:06:00,
2013-08-27 08:10:00,82.8,77.8,29.96,SE,142,3.0,6.2,85,0.00,,---,0.00,58.00,VWS V14.01,2013-08-27 13:10:00,
2013-08-27 08:11:00,82.8,77.8,29.96,SE,143,4.0,6.2,85,0.00,,---,0.00,58.00,VWS V14.01,2013-08-27 13:11:00,
2013-08-27 08:15:00,82.8,77.8,29.97,SE,142,4.0,5.2,85,0.00,,---,0.00,62.00,VWS V14.01,2013-08-27 13:15:00,
2013-08-27 08:16:00,82.8,77.8,29.97,SE,142,2.0,5.2,85,0.00,,---,0.00,62.00,VWS V14.01,2013-08-27 13:16:00,
2013-08-27 08:20:00,82.8,77.8,29.97,SE,142,2.0,6.2,85,0.00,,---,0.00,67.00,VWS V14.01,2013-08-27 13:20:00,
2013-08-27 08:21:00,82.8,77.8,29.97,SE,142,4.0,6.2,85,0.00,,---,0.00,67.00,VWS V14.01,2013-08-27 13:21:00,
2013-08-27 08:25:00,82.6,78.0,29.97,SE,141,1.0,5.2,86,0.00,,---,0.00,76.00,VWS V14.01,2013-08-27 13:25:00,
2013-08-27 08:26:00,82.6,78.0,29.97,SE,141,2.0,5.2,86,0.00,,---,0.00,76.00,VWS V14.01,2013-08-27 13:26:00,
2013-08-27 08:30:00,82.8,78.2,29.98,SE,141,2.0,6.2,86,0.00,,---,0.00,83.00,VWS V14.01,2013-08-27 13:30:00,
2013-08-27 08:31:00,82.8,78.2,29.98,SE,141,2.0,6.2,86,0.00,,---,0.00,83.00,VWS V14.01,2013-08-27 13:31:00,
2013-08-27 08:35:00,82.8,78.2,29.98,SE,138,0.0,5.2,86,0.00,,---,0.00,93.00,VWS V14.01,2013-08-27 13:35:00,
2013-08-27 08:36:00,82.8,78.2,29.98,SE,138,0.0,5.2,86,0.00,,---,0.00,93.00,VWS V14.01,2013-08-27 13:36:00,
2013-08-27 08:40:00,83.0,78.4,29.98,SE,130,3.0,9.2,86,0.00,,---,0.00,100.00,VWS V14.01,2013-08-27 13:40:00,
2013-08-27 08:41:00,83.0,78.4,29.98,SE,130,3.0,9.2,86,0.00,,---,0.00,100.00,VWS V14.01,2013-08-27 13:41:00,
2013-08-27 08:45:00,83.8,78.1,29.98,SE,125,5.0,7.2,83,0.00,,---,0.00,127.00,VWS V14.01,2013-08-27 13:45:00,
2013-08-27 08:46:00,83.8,78.4,29.98,SE,126,6.0,7.2,84,0.00,,---,0.00,127.00,VWS V14.01,2013-08-27 13:46:00,
2013-08-27 08:50:00,84.0,77.9,29.98,ESE,120,6.0,8.2,82,0.00,,---,0.00,146.00,VWS V14.01,2013-08-27 13:50:00,
2013-08-27 08:51:00,84.0,77.9,29.98,ESE,122,7.0,8.2,82,0.00,,---,0.00,146.00,VWS V14.01,2013-08-27 13:51:00,
2013-08-27 08:55:00,84.3,76.7,29.98,ESE,116,4.0,10.2,78,0.00,,---,0.00,185.00,VWS V14.01,2013-08-27 13:55:00,
2013-08-27 08:56:00,84.1,76.5,29.98,ESE,116,5.0,10.2,78,0.00,,---,0.00,185.00,VWS V14.01,2013-08-27 13:56:00,
2013-08-27 09:00:00,84.3,78.2,29.98,SE,133,5.0,10.2,82,0.00,,---,0.00,274.00,VWS V14.01,2013-08-27 14:00:00,
2013-08-27 09:01:00,84.3,78.2,29.98,SE,134,6.0,10.2,82,0.00,,---,0.00,260.00,VWS V14.01,2013-08-27 14:01:00,
2013-08-27 09:05:00,84.5,78.0,29.98,SSE,168,7.0,11.2,81,0.00,,---,0.00,294.00,VWS V14.01,2013-08-27 14:05:00,
2013-08-27 09:06:00,84.5,78.4,29.98,ESE,123,7.0,11.2,82,0.00,,---,0.00,294.00,VWS V14.01,2013-08-27 14:06:00,
2013-08-27 09:10:00,84.9,78.4,29.98,SE,142,7.0,12.2,81,0.00,,---,0.00,158.00,VWS V14.01,2013-08-27 14:10:00,
2013-08-27 09:11:00,84.9,78.4,29.98,South,170,2.0,12.2,81,0.00,,---,0.00,158.00,VWS V14.01,2013-08-27 14:11:00,
2013-08-27 09:15:00,84.7,78.2,29.98,ESE,122,3.0,11.2,81,0.00,,---,0.00,149.00,VWS V14.01,2013-08-27 14:15:00,
2013-08-27 09:16:00,84.7,78.2,29.98,ESE,122,3.0,11.2,81,0.00,,---,0.00,149.00,VWS V14.01,2013-08-27 14:16:00,
2013-08-27 09:20:00,84.7,78.2,29.98,East,99,5.0,10.2,81,0.00,,---,0.00,160.00,VWS V14.01,2013-08-27 14:20:00,
2013-08-27 09:21:00,84.7,78.2,29.98,East,98,3.0,10.2,81,0.00,,---,0.00,160.00,VWS V14.01,2013-08-27 14:21:00,
2013-08-27 09:25:00,84.5,77.7,29.98,ESE,109,9.0,12.2,80,0.00,,---,0.00,179.00,VWS V14.01,2013-08-27 14:25:00,
2013-08-27 09:26:00,84.5,77.7,29.98,SE,134,9.0,12.2,80,0.00,,---,0.00,179.00,VWS V14.01,2013-08-27 14:26:00,
2013-08-27 09:30:00,84.5,77.7,29.99,ESE,105,4.0,11.2,80,0.00,,---,0.00,246.00,VWS V14.01,2013-08-27 14:30:00,
2013-08-27 09:31:00,84.5,77.7,29.99,ESE,105,5.0,11.2,80,0.00,,---,0.00,246.00,VWS V14.01,2013-08-27 14:31:00,
2013-08-27 09:35:00,85.3,77.7,29.99,ESE,120,6.0,12.2,78,0.00,,---,0.00,320.00,VWS V14.01,2013-08-27 14:35:00,
2013-08-27 09:36:00,85.3,77.7,29.99,East,101,5.0,12.2,78,0.00,,---,0.00,301.00,VWS V14.01,2013-08-27 14:36:00,
2013-08-27 09:40:00,85.3,78.1,29.99,ESE,107,4.0,12.2,79,0.00,,---,0.00,339.00,VWS V14.01,2013-08-27 14:40:00,
2013-08-27 09:41:00,85.3,77.7,29.99,ESE,115,7.0,12.2,78,0.00,,---,0.00,339.00,VWS V14.01,2013-08-27 14:41:00,
2013-08-27 09:45:00,85.7,78.1,29.99,SSE,156,6.0,15.2,78,0.00,,---,0.00,369.00,VWS V14.01,2013-08-27 14:45:00,
2013-08-27 09:46:00,85.7,78.1,29.99,SE,126,8.0,15.2,78,0.00,,---,0.00,369.00,VWS V14.01,2013-08-27 14:46:00,
2013-08-27 09:50:00,85.9,78.2,29.99,SE,129,6.0,11.2,78,0.00,,---,0.00,374.00,VWS V14.01,2013-08-27 14:50:00,
2013-08-27 09:51:00,85.9,78.2,29.99,SE,138,5.0,11.2,78,0.00,,---,0.00,374.00,VWS V14.01,2013-08-27 14:51:00,
2013-08-27 09:55:00,86.1,78.8,29.99,ESE,122,7.0,11.2,79,0.00,,---,0.00,403.00,VWS V14.01,2013-08-27 14:55:00,
2013-08-27 09:56:00,86.1,78.8,29.99,ESE,121,10.0,11.2,79,0.00,,---,0.00,403.00,VWS V14.01,2013-08-27 14:56:00,
2013-08-27 10:00:00,86.1,78.8,29.99,SE,141,5.0,12.2,79,0.00,,---,0.00,390.00,VWS V14.01,2013-08-27 15:00:00,
2013-08-27 10:01:00,86.1,78.8,29.99,SSE,147,9.0,12.2,79,0.00,,---,0.00,390.00,VWS V14.01,2013-08-27 15:01:00,
2013-08-27 10:05:00,86.5,79.2,29.99,SE,141,5.0,11.2,79,0.00,,---,0.00,434.00,VWS V14.01,2013-08-27 15:05:00,
2013-08-27 10:06:00,86.5,79.2,29.99,ESE,109,6.0,11.2,79,0.00,,---,0.00,434.00,VWS V14.01,2013-08-27 15:06:00,
2013-08-27 10:10:00,86.3,78.2,29.99,ESE,115,5.0,13.2,77,0.00,,---,0.00,267.00,VWS V14.01,2013-08-27 15:10:00,
2013-08-27 10:11:00,86.3,78.6,29.99,ESE,115,6.0,13.2,78,0.00,,---,0.00,473.00,VWS V14.01,2013-08-27 15:11:00,
2013-08-27 10:15:00,86.7,77.8,29.99,ESE,111,5.0,15.2,75,0.00,,---,0.00,533.00,VWS V14.01,2013-08-27 15:15:00,
2013-08-27 10:16:00,86.7,78.2,29.99,ESE,123,10.0,15.2,76,0.00,,---,0.00,533.00,VWS V14.01,2013-08-27 15:16:00,
2013-08-27 10:20:00,87.4,78.1,29.99,SE,145,10.0,14.2,74,0.00,,---,0.00,418.00,VWS V14.01,2013-08-27 15:20:00,
2013-08-27 10:21:00,87.4,78.1,29.99,ESE,117,10.0,14.2,74,0.00,,---,0.00,418.00,VWS V14.01,2013-08-27 15:21:00,
2013-08-27 10:25:00,87.4,78.1,29.99,SE,137,6.0,13.2,74,0.00,,---,0.00,606.00,VWS V14.01,2013-08-27 15:25:00,
2013-08-27 10:26:00,87.4,78.1,29.99,SE,134,6.0,13.2,74,0.00,,---,0.00,554.00,VWS V14.01,2013-08-27 15:26:00,
2013-08-27 10:30:00,87.4,78.5,29.99,SE,140,11.0,15.2,75,0.00,,---,0.00,671.00,VWS V14.01,2013-08-27 15:30:00,
2013-08-27 10:31:00,87.4,78.1,29.99,ESE,121,4.0,15.2,74,0.00,,---,0.00,666.00,VWS V14.01,2013-08-27 15:31:00,
2013-08-27 10:35:00,88.2,78.9,29.99,SE,140,12.0,13.2,74,0.00,,---,0.00,679.00,VWS V14.01,2013-08-27 15:35:00,
2013-08-27 10:36:00,88.0,78.7,29.99,SE,132,6.0,13.2,74,0.00,,---,0.00,679.00,VWS V14.01,2013-08-27 15:36:00,
2013-08-27 10:40:00,88.2,78.4,29.99,SE,132,7.0,15.2,73,0.00,,---,0.00,717.00,VWS V14.01,2013-08-27 15:40:00,
2013-08-27 10:41:00,88.0,78.3,29.99,SE,133,4.0,15.2,73,0.00,,---,0.00,717.00,VWS V14.01,2013-08-27 15:41:00,
2013-08-27 10:45:00,88.4,78.2,30.00,East,100,5.0,13.2,72,0.00,,---,0.00,330.00,VWS V14.01,2013-08-27 15:45:00,
2013-08-27 10:46:00,88.4,78.2,30.00,SSE,158,9.0,13.2,72,0.00,,---,0.00,686.00,VWS V14.01,2013-08-27 15:46:00,
2013-08-27 10:50:00,87.8,78.1,30.00,SE,134,11.0,15.2,73,0.00,,---,0.00,278.00,VWS V14.01,2013-08-27 15:50:00,
2013-08-27 10:51:00,87.8,78.1,30.00,SE,127,6.0,15.2,73,0.00,,---,0.00,278.00,VWS V14.01,2013-08-27 15:51:00,
2013-08-27 10:55:00,87.8,78.9,30.00,SSE,153,5.0,17.2,75,0.00,,---,0.00,654.00,VWS V14.01,2013-08-27 15:55:00,
2013-08-27 10:56:00,87.6,78.7,30.00,East,99,7.0,17.2,75,0.00,,---,0.00,654.00,VWS V14.01,2013-08-27 15:56:00,
2013-08-27 11:00:00,88.0,79.5,30.00,East,98,5.0,12.2,76,0.00,,---,0.00,729.00,VWS V14.01,2013-08-27 16:00:00,
2013-08-27 11:01:00,88.0,79.5,30.00,East,83,5.0,12.2,76,0.00,,---,0.00,729.00,VWS V14.01,2013-08-27 16:01:00,
2013-08-27 11:05:00,87.6,78.3,30.00,SE,132,9.0,15.2,74,0.00,,---,0.00,367.00,VWS V14.01,2013-08-27 16:05:00,
2013-08-27 11:06:00,87.6,78.3,30.00,East,98,4.0,15.2,74,0.00,,---,0.00,329.00,VWS V14.01,2013-08-27 16:06:00,
2013-08-27 11:10:00,87.4,78.9,30.00,ESE,116,9.0,16.2,76,0.00,,---,0.00,443.00,VWS V14.01,2013-08-27 16:10:00,
2013-08-27 11:11:00,87.4,78.9,30.00,South,173,15.0,16.2,76,0.00,,---,0.00,443.00,VWS V14.01,2013-08-27 16:11:00,
2013-08-27 11:15:00,87.8,78.5,30.00,ENE,76,10.0,13.2,74,0.00,,---,0.00,355.00,VWS V14.01,2013-08-27 16:15:00,
2013-08-27 11:16:00,87.8,78.5,30.00,East,86,5.0,13.2,74,0.00,,---,0.00,290.00,VWS V14.01,2013-08-27 16:16:00,
2013-08-27 11:20:00,88.0,79.1,30.00,SE,132,12.0,13.2,75,0.00,,---,0.00,455.00,VWS V14.01,2013-08-27 16:20:00,
2013-08-27 11:21:00,88.0,79.1,30.00,ESE,103,4.0,11.2,75,0.00,,---,0.00,489.00,VWS V14.01,2013-08-27 16:21:00,
2013-08-27 11:25:00,88.0,79.1,30.00,SE,139,9.0,15.2,75,0.00,,---,0.00,622.00,VWS V14.01,2013-08-27 16:25:00,
2013-08-27 11:26:00,88.0,79.1,30.00,ESE,116,7.0,15.2,75,0.00,,---,0.00,622.00,VWS V14.01,2013-08-27 16:26:00,
2013-08-27 11:30:00,87.6,78.3,30.00,ESE,119,8.0,15.2,74,0.00,,---,0.00,281.00,VWS V14.01,2013-08-27 16:30:00,
2013-08-27 11:31:00,87.8,78.5,30.00,SE,133,4.0,15.2,74,0.00,,---,0.00,281.00,VWS V14.01,2013-08-27 16:31:00,
2013-08-27 11:35:00,88.0,78.7,30.00,ESE,123,12.0,13.2,74,0.00,,---,0.00,547.00,VWS V14.01,2013-08-27 16:35:00,
2013-08-27 11:36:00,88.0,78.7,30.00,SE,126,7.0,13.2,74,0.00,,---,0.00,547.00,VWS V14.01,2013-08-27 16:36:00,
2013-08-27 11:40:00,87.8,78.5,30.00,East,93,5.0,13.2,74,0.00,,---,0.00,320.00,VWS V14.01,2013-08-27 16:40:00,
2013-08-27 11:41:00,87.8,78.5,30.00,ESE,112,9.0,13.2,74,0.00,,---,0.00,320.00,VWS V14.01,2013-08-27 16:41:00,
2013-08-27 11:45:00,87.8,78.5,30.00,SE,142,12.0,17.2,74,0.00,,---,0.00,656.00,VWS V14.01,2013-08-27 16:45:00,
2013-08-27 11:46:00,87.8,78.5,30.00,SE,138,10.0,17.2,74,0.00,,---,0.00,656.00,VWS V14.01,2013-08-27 16:46:00,
2013-08-27 11:50:00,87.8,78.5,30.00,ESE,118,10.0,13.2,74,0.00,,---,0.00,647.00,VWS V14.01,2013-08-27 16:50:00,
2013-08-27 11:51:00,87.8,78.5,30.00,SE,125,11.0,13.2,74,0.00,,---,0.00,647.00,VWS V14.01,2013-08-27 16:51:00,
2013-08-27 11:55:00,88.0,79.1,30.00,ESE,114,9.0,13.2,75,0.00,,---,0.00,874.00,VWS V14.01,2013-08-27 16:55:00,
2013-08-27 11:56:00,88.0,78.7,30.00,SE,134,7.0,13.2,74,0.00,,---,0.00,865.00,VWS V14.01,2013-08-27 16:56:00,
2013-08-27 12:00:00,88.4,79.1,29.99,SE,126,6.0,17.2,74,0.00,,---,0.00,896.00,VWS V14.01,2013-08-27 17:00:00,
2013-08-27 12:01:00,88.4,79.1,29.99,ESE,111,7.0,17.2,74,0.00,,---,0.00,896.00,VWS V14.01,2013-08-27 17:01:00,
2013-08-27 12:05:00,89.3,79.1,29.99,SE,141,7.0,14.2,72,0.00,,---,0.00,918.00,VWS V14.01,2013-08-27 17:05:00,
2013-08-27 12:06:00,89.3,79.1,29.99,ESE,113,10.0,14.2,72,0.00,,---,0.00,918.00,VWS V14.01,2013-08-27 17:06:00,
2013-08-27 12:10:00,88.8,78.2,29.99,SE,142,10.0,14.2,71,0.00,,---,0.00,469.00,VWS V14.01,2013-08-27 17:10:00,
2013-08-27 12:11:00,89.0,78.4,29.99,ESE,114,9.0,14.2,71,0.00,,---,0.00,469.00,VWS V14.01,2013-08-27 17:11:00,
2013-08-27 12:15:00,88.4,78.2,29.99,SE,136,10.0,12.2,72,0.00,,---,0.00,496.00,VWS V14.01,2013-08-27 17:15:00,
2013-08-27 12:16:00,88.4,78.7,29.99,SE,124,6.0,12.2,73,0.00,,---,0.00,496.00,VWS V14.01,2013-08-27 17:16:00,
2013-08-27 12:20:00,88.2,78.0,29.99,ESE,122,8.0,11.2,72,0.00,,---,0.00,399.00,VWS V14.01,2013-08-27 17:20:00,
2013-08-27 12:21:00,88.2,78.0,29.99,East,100,8.0,11.2,72,0.00,,---,0.00,399.00,VWS V14.01,2013-08-27 17:21:00,
2013-08-27 12:25:00,87.8,77.2,29.99,SE,138,7.0,14.2,71,0.00,,---,0.00,401.00,VWS V14.01,2013-08-27 17:25:00,
2013-08-27 12:26:00,88.0,77.4,29.99,ESE,112,6.0,14.2,71,0.00,,---,0.00,399.00,VWS V14.01,2013-08-27 17:26:00,
2013-08-27 12:30:00,87.8,78.1,29.99,ESE,105,7.0,14.2,73,0.00,,---,0.00,640.00,VWS V14.01,2013-08-27 17:30:00,
2013-08-27 12:31:00,87.8,78.1,29.99,ESE,108,6.0,14.2,73,0.00,,---,0.00,357.00,VWS V14.01,2013-08-27 17:31:00,
2013-08-27 12:35:00,88.6,78.4,29.99,ESE,109,7.0,12.2,72,0.00,,---,0.00,439.00,VWS V14.01,2013-08-27 17:35:00,
2013-08-27 12:36:00,88.6,78.8,29.99,East,98,9.0,12.2,73,0.00,,---,0.00,439.00,VWS V14.01,2013-08-27 17:36:00,
2013-08-27 12:40:00,88.4,78.2,29.99,SE,130,11.0,14.2,72,0.00,,---,0.00,424.00,VWS V14.01,2013-08-27 17:40:00,
2013-08-27 12:41:00,88.4,78.2,29.99,SSE,152,9.0,13.2,72,0.00,,---,0.00,424.00,VWS V14.01,2013-08-27 17:41:00,
2013-08-27 12:45:00,87.4,77.3,29.99,SE,125,9.0,15.2,72,0.00,,---,0.00,362.00,VWS V14.01,2013-08-27 17:45:00,
2013-08-27 12:46:00,87.6,77.5,29.99,SSE,148,5.0,15.2,72,0.00,,---,0.00,448.00,VWS V14.01,2013-08-27 17:46:00,
2013-08-27 12:50:00,87.4,77.7,29.99,SE,131,6.0,16.2,73,0.00,,---,0.00,503.00,VWS V14.01,2013-08-27 17:50:00,
2013-08-27 12:51:00,87.4,77.7,29.99,SE,126,5.0,16.2,73,0.00,,---,0.00,503.00,VWS V14.01,2013-08-27 17:51:00,
2013-08-27 12:55:00,87.4,77.7,29.99,ESE,121,8.0,14.2,73,0.00,,---,0.00,475.00,VWS V14.01,2013-08-27 17:55:00,
2013-08-27 12:56:00,87.4,77.7,29.99,SE,139,5.0,14.2,73,0.00,,---,0.00,475.00,VWS V14.01,2013-08-27 17:56:00,
2013-08-27 13:00:00,87.4,78.1,29.99,SE,133,6.0,13.2,74,0.00,,---,0.00,476.00,VWS V14.01,2013-08-27 18:00:00,
2013-08-27 13:01:00,87.4,78.1,29.99,ESE,114,4.0,13.2,74,0.00,,---,0.00,473.00,VWS V14.01,2013-08-27 18:01:00,
2013-08-27 13:05:00,87.4,78.5,29.99,East,96,2.0,14.2,75,0.00,,---,0.00,506.00,VWS V14.01,2013-08-27 18:05:00,
2013-08-27 13:06:00,87.4,78.1,29.99,East,96,5.0,14.2,74,0.00,,---,0.00,485.00,VWS V14.01,2013-08-27 18:06:00,
2013-08-27 13:10:00,87.6,78.7,29.99,East,91,4.0,14.2,75,0.00,,---,0.00,550.00,VWS V14.01,2013-08-27 18:10:00,
2013-08-27 13:11:00,87.6,78.3,29.99,East,90,5.0,14.2,74,0.00,,---,0.00,550.00,VWS V14.01,2013-08-27 18:11:00,
2013-08-27 13:15:00,87.8,78.1,29.99,SE,132,7.0,15.2,73,0.00,,---,0.00,524.00,VWS V14.01,2013-08-27 18:15:00,
2013-08-27 13:16:00,87.8,78.1,29.99,SE,136,5.0,15.2,73,0.00,,---,0.00,524.00,VWS V14.01,2013-08-27 18:16:00,
2013-08-27 13:20:00,88.6,78.8,29.99,ESE,123,11.0,12.2,73,0.00,,---,0.00,459.00,VWS V14.01,2013-08-27 18:20:00,
2013-08-27 13:21:00,88.6,79.2,29.99,ESE,116,8.0,12.2,74,0.00,,---,0.00,454.00,VWS V14.01,2013-08-27 18:21:00,
2013-08-27 13:25:00,88.0,78.3,29.99,SE,133,5.0,13.2,73,0.00,,---,0.00,438.00,VWS V14.01,2013-08-27 18:25:00,
2013-08-27 13:26:00,88.0,77.8,29.99,East,95,5.0,13.2,72,0.00,,---,0.00,438.00,VWS V14.01,2013-08-27 18:26:00,
2013-08-27 13:30:00,87.4,78.1,29.98,ESE,103,10.0,15.2,74,0.00,,---,0.00,448.00,VWS V14.01,2013-08-27 18:30:00,
2013-08-27 13:31:00,87.4,78.1,29.98,SE,133,7.0,15.2,74,0.00,,---,0.00,448.00,VWS V14.01,2013-08-27 18:31:00,
2013-08-27 13:35:00,87.4,78.1,29.98,SE,126,5.0,17.2,74,0.00,,---,0.00,461.00,VWS V14.01,2013-08-27 18:35:00,
2013-08-27 13:36:00,87.2,77.9,29.98,ESE,109,7.0,17.2,74,0.00,,---,0.00,462.00,VWS V14.01,2013-08-27 18:36:00,
2013-08-27 13:40:00,87.6,76.2,29.98,SE,126,5.0,12.2,69,0.00,,---,0.00,462.00,VWS V14.01,2013-08-27 18:40:00,
2013-08-27 13:41:00,87.6,76.2,29.98,SE,127,11.0,12.2,69,0.00,,---,0.00,461.00,VWS V14.01,2013-08-27 18:41:00,
2013-08-27 13:45:00,87.6,77.0,29.98,SE,128,6.0,15.2,71,0.00,,---,0.00,459.00,VWS V14.01,2013-08-27 18:45:00,
2013-08-27 13:46:00,87.6,76.6,29.98,ESE,115,6.0,15.2,70,0.00,,---,0.00,459.00,VWS V14.01,2013-08-27 18:46:00,
2013-08-27 13:50:00,88.0,76.1,29.98,SE,142,7.0,12.2,68,0.00,,---,0.00,446.00,VWS V14.01,2013-08-27 18:50:00,
2013-08-27 13:51:00,88.0,76.1,29.98,ESE,110,2.0,12.2,68,0.00,,---,0.00,448.00,VWS V14.01,2013-08-27 18:51:00,
2013-08-27 13:55:00,88.0,76.6,29.98,SE,128,11.0,16.2,69,0.00,,---,0.00,431.00,VWS V14.01,2013-08-27 18:55:00,
2013-08-27 13:56:00,88.0,76.6,29.98,SE,131,11.0,16.2,69,0.00,,---,0.00,432.00,VWS V14.01,2013-08-27 18:56:00,
2013-08-27 14:00:00,87.4,77.3,29.98,ESE,111,6.0,14.2,72,0.00,,---,0.00,418.00,VWS V14.01,2013-08-27 19:00:00,
2013-08-27 14:01:00,87.4,77.3,29.98,SE,130,3.0,14.2,72,0.00,,---,0.00,418.00,VWS V14.01,2013-08-27 19:01:00,
2013-08-27 14:05:00,87.6,77.5,29.98,SE,134,8.0,12.2,72,0.00,,---,0.00,434.00,VWS V14.01,2013-08-27 19:05:00,
2013-08-27 14:06:00,87.6,77.5,29.98,SE,130,5.0,10.2,72,0.00,,---,0.00,434.00,VWS V14.01,2013-08-27 19:06:00,
2013-08-27 14:10:00,87.6,77.5,29.98,SSE,151,8.0,11.2,72,0.00,,---,0.00,425.00,VWS V14.01,2013-08-27 19:10:00,
2013-08-27 14:15:00,87.6,77.9,29.98,ESE,117,8.0,13.2,73,0.00,,---,0.00,445.00,VWS V14.01,2013-08-27 19:15:00,
2013-08-27 14:20:00,87.8,77.2,29.98,East,83,4.0,12.2,71,0.00,,---,0.00,436.00,VWS V14.01,2013-08-27 19:20:00,
2013-08-27 14:25:00,88.6,77.1,29.98,SE,131,4.0,13.2,69,0.00,,---,0.00,434.00,VWS V14.01,2013-08-27 19:25:00,
2013-08-27 14:30:00,88.4,77.4,29.97,SE,133,6.0,12.2,70,0.00,,---,0.00,468.00,VWS V14.01,2013-08-27 19:30:00,
2013-08-27 14:35:00,88.2,77.6,29.97,East,97,6.0,13.2,71,0.00,,---,0.00,548.00,VWS V14.01,2013-08-27 19:35:00,
2013-08-27 14:40:00,88.2,78.0,29.97,SE,141,4.0,11.2,72,0.00,,---,0.00,800.00,VWS V14.01,2013-08-27 19:40:00,
2013-08-27 14:45:00,88.8,77.8,29.96,SE,145,9.0,13.2,70,0.00,,---,0.00,770.00,VWS V14.01,2013-08-27 19:45:00,
2013-08-27 14:50:00,89.0,76.6,29.96,SE,132,9.0,13.2,67,0.00,,---,0.00,838.00,VWS V14.01,2013-08-27 19:50:00,
2013-08-27 14:55:00,89.9,77.5,29.96,ESE,117,9.0,14.2,67,0.00,,---,0.00,805.00,VWS V14.01,2013-08-27 19:55:00,
2013-08-27 15:00:00,89.5,77.1,29.96,SSE,151,5.0,13.2,67,0.00,,---,0.00,802.00,VWS V14.01,2013-08-27 20:00:00,
2013-08-27 15:05:00,89.5,77.6,29.96,SE,130,5.0,13.2,68,0.00,,---,0.00,819.00,VWS V14.01,2013-08-27 20:05:00,
2013-08-27 15:10:00,89.5,77.6,29.96,SE,140,8.0,14.2,68,0.00,,---,0.00,916.00,VWS V14.01,2013-08-27 20:10:00,
2013-08-27 15:15:00,89.7,77.7,29.96,ESE,114,4.0,10.2,68,0.00,,---,0.00,937.00,VWS V14.01,2013-08-27 20:15:00,
2013-08-27 15:20:00,89.7,78.2,29.96,East,86,7.0,13.2,69,0.00,,---,0.00,976.00,VWS V14.01,2013-08-27 20:20:00,
2013-08-27 15:25:00,90.3,77.9,29.96,SE,136,10.0,14.2,67,0.00,,---,0.00,928.00,VWS V14.01,2013-08-27 20:25:00,
2013-08-27 15:30:00,91.0,78.5,29.95,SSE,148,7.0,13.2,67,0.00,,---,0.00,921.00,VWS V14.01,2013-08-27 20:30:00,
2013-08-27 15:35:00,90.5,78.1,29.95,ENE,59,5.0,15.2,67,0.00,,---,0.00,867.00,VWS V14.01,2013-08-27 20:35:00,
2013-08-27 15:36:00,90.5,78.1,29.95,East,100,8.0,15.2,67,0.00,,---,0.00,900.00,VWS V14.01,2013-08-27 20:36:00,
2013-08-27 15:40:00,90.1,76.8,29.95,ESE,113,10.0,13.2,65,0.00,,---,0.00,775.00,VWS V14.01,2013-08-27 20:40:00,
2013-08-27 15:45:00,90.1,78.1,29.95,East,82,4.0,14.2,68,0.00,,---,0.00,766.00,VWS V14.01,2013-08-27 20:45:00,
2013-08-27 15:50:00,90.3,78.8,29.95,ESE,120,7.0,15.2,69,0.00,,---,0.00,784.00,VWS V14.01,2013-08-27 20:50:00,
2013-08-27 15:55:00,89.9,77.9,29.95,ESE,117,9.0,13.2,68,0.00,,---,0.00,759.00,VWS V14.01,2013-08-27 20:55:00,
2013-08-27 15:56:00,89.9,77.9,29.95,SE,125,6.0,13.2,68,0.00,,---,0.00,759.00,VWS V14.01,2013-08-27 20:56:00,
2013-08-27 16:00:00,88.8,78.2,29.95,ESE,104,7.0,14.2,71,0.00,,---,0.00,555.00,VWS V14.01,2013-08-27 21:00:00,
2013-08-27 16:01:00,88.8,78.2,29.95,East,85,11.0,14.2,71,0.00,,---,0.00,534.00,VWS V14.01,2013-08-27 21:01:00,
2013-08-27 16:05:00,88.6,77.1,29.95,ESE,116,6.0,13.2,69,0.00,,---,0.00,557.00,VWS V14.01,2013-08-27 21:05:00,
2013-08-27 16:06:00,88.6,77.1,29.95,ESE,115,6.0,13.2,69,0.00,,---,0.00,557.00,VWS V14.01,2013-08-27 21:06:00,
2013-08-27 16:10:00,88.6,77.6,29.95,SE,144,5.0,11.2,70,0.00,,---,0.00,496.00,VWS V14.01,2013-08-27 21:10:00,
2013-08-27 16:11:00,88.6,77.6,29.95,ESE,121,6.0,11.2,70,0.00,,---,0.00,496.00,VWS V14.01,2013-08-27 21:11:00,
2013-08-27 16:15:00,88.6,77.1,29.95,SE,130,2.0,13.2,69,0.00,,---,0.00,515.00,VWS V14.01,2013-08-27 21:15:00,
2013-08-27 16:16:00,88.6,77.1,29.95,SE,130,5.0,13.2,69,0.00,,---,0.00,496.00,VWS V14.01,2013-08-27 21:16:00,
2013-08-27 16:20:00,89.3,77.8,29.95,ESE,111,5.0,13.2,69,0.00,,---,0.00,473.00,VWS V14.01,2013-08-27 21:20:00,
2013-08-27 16:21:00,89.3,77.8,29.95,SE,136,10.0,13.2,69,0.00,,---,0.00,483.00,VWS V14.01,2013-08-27 21:21:00,
2013-08-27 16:25:00,88.6,76.7,29.95,ESE,115,5.0,11.2,68,0.00,,---,0.00,468.00,VWS V14.01,2013-08-27 21:25:00,
2013-08-27 16:26:00,88.8,76.9,29.95,East,87,6.0,11.2,68,0.00,,---,0.00,468.00,VWS V14.01,2013-08-27 21:26:00,
2013-08-27 16:30:00,88.4,77.4,29.95,ENE,67,5.0,12.2,70,0.00,,---,0.00,468.00,VWS V14.01,2013-08-27 21:30:00,
2013-08-27 16:31:00,88.4,77.4,29.95,East,94,6.0,12.2,70,0.00,,---,0.00,468.00,VWS V14.01,2013-08-27 21:31:00,
2013-08-27 16:35:00,88.2,77.6,29.95,SE,128,5.0,12.2,71,0.00,,---,0.00,438.00,VWS V14.01,2013-08-27 21:35:00,
2013-08-27 16:36:00,88.2,77.2,29.95,ESE,111,6.0,12.2,70,0.00,,---,0.00,487.00,VWS V14.01,2013-08-27 21:36:00,
2013-08-27 16:40:00,88.2,77.2,29.95,East,97,7.0,11.2,70,0.00,,---,0.00,281.00,VWS V14.01,2013-08-27 21:40:00,
2013-08-27 16:41:00,88.4,77.4,29.95,East,93,7.0,11.2,70,0.00,,---,0.00,281.00,VWS V14.01,2013-08-27 21:41:00,
2013-08-27 16:45:00,88.2,77.6,29.95,SE,130,4.0,11.2,71,0.00,,---,0.00,503.00,VWS V14.01,2013-08-27 21:45:00,
2013-08-27 16:46:00,88.2,77.6,29.95,SE,134,6.0,11.2,71,0.00,,---,0.00,503.00,VWS V14.01,2013-08-27 21:46:00,
2013-08-27 16:50:00,88.8,76.0,29.95,ENE,64,6.0,11.2,66,0.00,,---,0.00,418.00,VWS V14.01,2013-08-27 21:50:00,
2013-08-27 16:51:00,88.8,76.0,29.95,ESE,113,9.0,11.2,66,0.00,,---,0.00,448.00,VWS V14.01,2013-08-27 21:51:00,
2013-08-27 16:55:00,88.4,75.1,29.95,ESE,103,8.0,13.2,65,0.00,,---,0.00,359.00,VWS V14.01,2013-08-27 21:55:00,
2013-08-27 16:56:00,88.4,75.1,29.95,East,91,7.0,13.2,65,0.00,,---,0.00,359.00,VWS V14.01,2013-08-27 21:56:00,
2013-08-27 17:00:00,88.2,75.0,29.95,ESE,106,5.0,11.2,65,0.00,,---,0.00,327.00,VWS V14.01,2013-08-27 22:00:00,
2013-08-27 17:01:00,88.2,75.0,29.95,SSE,148,5.0,11.2,65,0.00,,---,0.00,327.00,VWS V14.01,2013-08-27 22:01:00,
2013-08-27 17:05:00,87.8,75.0,29.95,East,101,4.0,10.2,66,0.00,,---,0.00,278.00,VWS V14.01,2013-08-27 22:05:00,
2013-08-27 17:06:00,87.8,75.0,29.95,ESE,120,7.0,10.2,66,0.00,,---,0.00,278.00,VWS V14.01,2013-08-27 22:06:00,
2013-08-27 17:10:00,87.6,74.8,29.95,East,89,3.0,10.2,66,0.00,,---,0.00,239.00,VWS V14.01,2013-08-27 22:10:00,
2013-08-27 17:11:00,87.6,74.8,29.95,East,94,5.0,10.2,66,0.00,,---,0.00,248.00,VWS V14.01,2013-08-27 22:11:00,
2013-08-27 17:15:00,88.2,74.5,29.95,East,101,9.0,11.2,64,0.00,,---,0.00,251.00,VWS V14.01,2013-08-27 22:15:00,
2013-08-27 17:16:00,88.2,74.5,29.95,East,92,2.0,11.2,64,0.00,,---,0.00,251.00,VWS V14.01,2013-08-27 22:16:00,
2013-08-27 17:20:00,87.8,75.0,29.95,East,99,5.0,11.2,66,0.00,,---,0.00,244.00,VWS V14.01,2013-08-27 22:20:00,
2013-08-27 17:21:00,87.8,75.0,29.95,ESE,105,7.0,11.2,66,0.00,,---,0.00,244.00,VWS V14.01,2013-08-27 22:21:00,
2013-08-27 17:25:00,87.2,75.4,29.95,East,83,5.0,13.2,68,0.00,,---,0.00,262.00,VWS V14.01,2013-08-27 22:25:00,
2013-08-27 17:26:00,87.2,75.4,29.95,ESE,106,9.0,13.2,68,0.00,,---,0.00,262.00,VWS V14.01,2013-08-27 22:26:00,
2013-08-27 17:30:00,87.0,75.6,29.95,East,88,6.0,11.2,69,0.00,,---,0.00,264.00,VWS V14.01,2013-08-27 22:30:00,
2013-08-27 17:31:00,87.2,75.8,29.95,ENE,74,5.0,11.2,69,0.00,,---,0.00,243.00,VWS V14.01,2013-08-27 22:31:00,
2013-08-27 17:35:00,87.0,76.0,29.95,ENE,76,3.0,11.2,70,0.00,,---,0.00,318.00,VWS V14.01,2013-08-27 22:35:00,
2013-08-27 17:36:00,87.0,76.0,29.95,East,86,6.0,11.2,70,0.00,,---,0.00,318.00,VWS V14.01,2013-08-27 22:36:00,
2013-08-27 17:40:00,88.0,75.7,29.95,ESE,107,6.0,11.2,67,0.00,,---,0.00,374.00,VWS V14.01,2013-08-27 22:40:00,
2013-08-27 17:41:00,87.8,75.5,29.95,ESE,115,6.0,11.2,67,0.00,,---,0.00,380.00,VWS V14.01,2013-08-27 22:41:00,
2013-08-27 17:45:00,88.6,75.8,29.95,ESE,115,6.0,12.2,66,0.00,,---,0.00,322.00,VWS V14.01,2013-08-27 22:45:00,
2013-08-27 17:46:00,88.6,75.3,29.95,East,97,3.0,12.2,65,0.00,,---,0.00,327.00,VWS V14.01,2013-08-27 22:46:00,
2013-08-27 17:50:00,87.8,75.9,29.95,East,80,8.0,12.2,68,0.00,,---,0.00,265.00,VWS V14.01,2013-08-27 22:50:00,
2013-08-27 17:51:00,88.0,76.1,29.95,East,96,6.0,12.2,68,0.00,,---,0.00,265.00,VWS V14.01,2013-08-27 22:51:00,
2013-08-27 17:55:00,87.4,76.0,29.95,East,83,5.0,11.2,69,0.00,,---,0.00,334.00,VWS V14.01,2013-08-27 22:55:00,
2013-08-27 17:56:00,87.4,76.0,29.95,ESE,103,6.0,11.2,69,0.00,,---,0.00,334.00,VWS V14.01,2013-08-27 22:56:00,
2013-08-27 18:00:00,87.2,76.2,29.95,ESE,118,7.0,11.2,70,0.00,,---,0.00,288.00,VWS V14.01,2013-08-27 23:00:00,
2013-08-27 18:01:00,87.2,76.2,29.95,East,96,5.0,10.2,70,0.00,,---,0.00,301.00,VWS V14.01,2013-08-27 23:01:00,
2013-08-27 18:05:00,87.4,76.4,29.95,ESE,110,6.0,12.2,70,0.00,,---,0.00,299.00,VWS V14.01,2013-08-27 23:05:00,
2013-08-27 18:06:00,87.2,76.2,29.95,East,101,6.0,12.2,70,0.00,,---,0.00,313.00,VWS V14.01,2013-08-27 23:06:00,
2013-08-27 18:10:00,87.8,76.8,29.95,SE,144,3.0,11.2,70,0.00,,---,0.00,272.00,VWS V14.01,2013-08-27 23:10:00,
2013-08-27 18:11:00,87.8,76.8,29.95,NE,55,3.0,11.2,70,0.00,,---,0.00,272.00,VWS V14.01,2013-08-27 23:11:00,
2013-08-27 18:15:00,87.2,76.2,29.95,SE,138,4.0,11.2,70,0.00,,---,0.00,299.00,VWS V14.01,2013-08-27 23:15:00,
2013-08-27 18:16:00,87.4,76.4,29.95,SSE,155,6.0,11.2,70,0.00,,---,0.00,299.00,VWS V14.01,2013-08-27 23:16:00,
2013-08-27 18:20:00,87.0,76.0,29.95,East,98,7.0,11.2,70,0.00,,---,0.00,281.00,VWS V14.01,2013-08-27 23:20:00,
2013-08-27 18:21:00,87.0,76.0,29.95,East,98,8.0,11.2,70,0.00,,---,0.00,292.00,VWS V14.01,2013-08-27 23:21:00,
2013-08-27 18:25:00,86.5,75.6,29.95,ESE,103,6.0,12.2,70,0.00,,---,0.00,230.00,VWS V14.01,2013-08-27 23:25:00,
2013-08-27 18:26:00,86.7,75.8,29.95,ESE,109,6.0,12.2,70,0.00,,---,0.00,230.00,VWS V14.01,2013-08-27 23:26:00,
2013-08-27 18:30:00,86.5,76.0,29.95,East,98,10.0,13.2,71,0.00,,---,0.00,167.00,VWS V14.01,2013-08-27 23:30:00,
2013-08-27 18:31:00,86.5,76.0,29.95,ESE,118,6.0,13.2,71,0.00,,---,0.00,167.00,VWS V14.01,2013-08-27 23:31:00,
2013-08-27 18:35:00,87.0,76.9,29.95,ESE,105,3.0,12.2,72,0.00,,---,0.00,116.00,VWS V14.01,2013-08-27 23:35:00,
2013-08-27 18:36:00,87.0,76.9,29.95,ESE,105,3.0,12.2,72,0.00,,---,0.00,127.00,VWS V14.01,2013-08-27 23:36:00,
2013-08-27 18:40:00,86.7,76.6,29.95,ESE,116,6.0,9.2,72,0.00,,---,0.00,105.00,VWS V14.01,2013-08-27 23:40:00,
2013-08-27 18:41:00,86.7,76.6,29.95,ESE,112,6.0,9.2,72,0.00,,---,0.00,105.00,VWS V14.01,2013-08-27 23:41:00,
2013-08-27 18:45:00,86.1,76.4,29.95,ESE,111,5.0,10.2,73,0.00,,---,0.00,74.00,VWS V14.01,2013-08-27 23:45:00,
2013-08-27 18:46:00,86.3,76.6,29.95,East,99,6.0,10.2,73,0.00,,---,0.00,74.00,VWS V14.01,2013-08-27 23:46:00,
2013-08-27 18:50:00,85.9,76.7,29.95,ESE,118,4.0,10.2,74,0.00,,---,0.00,53.00,VWS V14.01,2013-08-27 23:50:00,
2013-08-27 18:51:00,85.9,76.7,29.95,East,92,3.0,10.2,74,0.00,,---,0.00,53.00,VWS V14.01,2013-08-27 23:51:00,
2013-08-27 18:55:00,85.7,76.9,29.95,East,91,3.0,10.2,75,0.00,,---,0.00,47.00,VWS V14.01,2013-08-27 23:55:00,
2013-08-27 18:56:00,85.7,76.9,29.95,East,94,6.0,8.2,75,0.00,,---,0.00,47.00,VWS V14.01,2013-08-27 23:56:00,
2013-08-27 19:00:00,85.1,77.1,29.94,East,101,4.0,10.2,77,0.00,,---,0.00,42.00,VWS V14.01,2013-08-28 00:00:00,
2013-08-27 19:01:00,85.1,77.1,29.94,East,93,7.0,10.2,77,0.00,,---,0.00,42.00,VWS V14.01,2013-08-28 00:01:00,
2013-08-27 19:05:00,85.5,77.5,29.94,East,97,6.0,10.2,77,0.00,,---,0.00,39.00,VWS V14.01,2013-08-28 00:05:00,
2013-08-27 19:06:00,85.5,77.5,29.94,ESE,113,2.0,10.2,77,0.00,,---,0.00,39.00,VWS V14.01,2013-08-28 00:06:00,
2013-08-27 19:10:00,84.9,76.9,29.94,ESE,119,5.0,11.2,77,0.00,,---,0.00,33.00,VWS V14.01,2013-08-28 00:10:00,
2013-08-27 19:11:00,84.9,76.9,29.94,ESE,113,3.0,11.2,77,0.00,,---,0.00,35.00,VWS V14.01,2013-08-28 00:11:00,
2013-08-27 19:15:00,84.5,77.3,29.93,SE,132,4.0,9.2,79,0.00,,---,0.00,30.00,VWS V14.01,2013-08-28 00:15:00,
2013-08-27 19:16:00,84.5,76.9,29.93,SE,134,6.0,9.2,78,0.00,,---,0.00,30.00,VWS V14.01,2013-08-28 00:16:00,
2013-08-27 19:20:00,84.3,77.1,29.93,ESE,115,1.0,9.2,79,0.00,,---,0.00,25.00,VWS V14.01,2013-08-28 00:20:00,
2013-08-27 19:21:00,84.3,77.1,29.93,ESE,115,5.0,9.2,79,0.00,,---,0.00,25.00,VWS V14.01,2013-08-28 00:21:00,
2013-08-27 19:25:00,84.1,77.3,29.93,East,101,3.0,7.2,80,0.00,,---,0.00,21.00,VWS V14.01,2013-08-28 00:25:00,
2013-08-27 19:26:00,84.1,77.3,29.93,East,101,1.0,7.2,80,0.00,,---,0.00,21.00,VWS V14.01,2013-08-28 00:26:00,
2013-08-27 19:30:00,84.1,77.3,29.94,East,85,3.0,10.2,80,0.00,,---,0.00,16.00,VWS V14.01,2013-08-28 00:30:00,
2013-08-27 19:31:00,84.1,77.3,29.94,East,85,3.0,10.2,80,0.00,,---,0.00,18.00,VWS V14.01,2013-08-28 00:31:00,
2013-08-27 19:35:00,85.1,77.9,29.94,ESE,109,5.0,8.2,79,0.00,,---,0.00,12.00,VWS V14.01,2013-08-28 00:35:00,
2013-08-27 19:36:00,85.1,77.9,29.94,ESE,109,3.0,8.2,79,0.00,,---,0.00,12.00,VWS V14.01,2013-08-28 00:36:00,
2013-08-27 19:40:00,84.7,77.5,29.94,East,94,4.0,11.2,79,0.00,,---,0.00,9.00,VWS V14.01,2013-08-28 00:40:00,
2013-08-27 19:41:00,84.7,77.5,29.94,ESE,121,10.0,11.2,79,0.00,,---,0.00,9.00,VWS V14.01,2013-08-28 00:41:00,
2013-08-27 19:45:00,84.3,77.5,29.93,East,94,3.0,7.2,80,0.00,,---,0.00,5.00,VWS V14.01,2013-08-28 00:45:00,
2013-08-27 19:46:00,84.3,77.5,29.93,East,96,4.0,7.2,80,0.00,,---,0.00,5.00,VWS V14.01,2013-08-28 00:46:00,
2013-08-27 19:50:00,84.3,77.5,29.93,East,94,2.0,12.2,80,0.00,,---,0.00,0.00,VWS V14.01,2013-08-28 00:50:00,
2013-08-27 19:51:00,84.3,77.8,29.93,ESE,113,9.0,12.2,81,0.00,,---,0.00,0.00,VWS V14.01,2013-08-28 00:51:00,
2013-08-27 19:55:00,84.0,77.5,29.93,ESE,105,4.0,8.2,81,0.00,,---,0.00,0.00,VWS V14.01,2013-08-28 00:55:00,
2013-08-27 19:56:00,84.0,77.5,29.93,ESE,105,4.0,8.2,81,0.00,,---,0.00,0.00,VWS V14.01,2013-08-28 00:56:00,
2013-08-27 20:00:00,83.6,77.5,29.93,East,87,6.0,10.2,82,0.00,,---,0.00,0.00,VWS V14.01,2013-08-28 01:00:00,
2013-08-27 20:01:00,83.6,77.5,29.93,ENE,69,4.0,8.2,82,0.00,,---,0.00,0.00,VWS V14.01,2013-08-28 01:01:00,
2013-08-27 20:05:00,83.8,77.7,29.93,East,87,2.0,7.2,82,0.00,,---,0.00,0.00,VWS V14.01,2013-08-28 01:05:00,
2013-08-27 20:06:00,83.8,77.7,29.93,East,87,2.0,7.2,82,0.00,,---,0.00,0.00,VWS V14.01,2013-08-28 01:06:00,
2013-08-27 20:10:00,83.8,77.7,29.93,ESE,113,11.0,12.2,82,0.00,,---,0.00,0.00,VWS V14.01,2013-08-28 01:10:00,
2013-08-27 20:15:00,83.4,77.3,29.94,East,101,8.0,11.2,82,0.00,,---,0.00,0.00,VWS V14.01,2013-08-28 01:15:00,
2013-08-27 20:20:00,83.2,77.5,29.94,East,87,5.0,8.2,83,0.00,,---,0.00,0.00,VWS V14.01,2013-08-28 01:20:00,
2013-08-27 20:25:00,83.2,77.9,29.94,ESE,109,5.0,8.2,84,0.00,,---,0.00,0.00,VWS V14.01,2013-08-28 01:25:00,
2013-08-27 20:30:00,83.2,77.9,29.94,ENE,78,4.0,8.2,84,0.00,,---,0.00,0.00,VWS V14.01,2013-08-28 01:30:00,
2013-08-27 20:35:00,83.2,77.9,29.94,ESE,105,4.0,11.2,84,0.00,,---,0.00,0.00,VWS V14.01,2013-08-28 01:35:00,
2013-08-27 20:40:00,83.6,78.3,29.94,East,90,6.0,8.2,84,0.00,,---,0.00,0.00,VWS V14.01,2013-08-28 01:40:00,
2013-08-27 20:45:00,83.8,77.7,29.94,East,92,4.0,11.2,82,0.00,,---,0.00,0.00,VWS V14.01,2013-08-28 01:45:00,
2013-08-27 20:50:00,83.8,77.7,29.94,East,96,6.0,8.2,82,0.00,,---,0.00,0.00,VWS V14.01,2013-08-28 01:50:00,
2013-08-27 20:55:00,83.8,78.1,29.94,East,97,4.0,8.2,83,0.00,,---,0.00,0.00,VWS V14.01,2013-08-28 01:55:00,
2013-08-27 21:00:00,83.8,78.1,29.94,East,97,4.0,7.2,83,0.00,,---,0.00,0.00,VWS V14.01,2013-08-28 02:00:00,
2013-08-27 21:05:00,83.6,77.9,29.94,ESE,102,4.0,10.2,83,0.00,,---,0.00,0.00,VWS V14.01,2013-08-28 02:05:00,
2013-08-27 21:10:00,83.4,78.1,29.94,ESE,107,3.0,8.2,84,0.00,,---,0.00,0.00,VWS V14.01,2013-08-28 02:10:00,
2013-08-27 21:15:00,83.6,77.9,29.95,SE,129,5.0,11.2,83,0.00,,---,0.00,0.00,VWS V14.01,2013-08-28 02:15:00,
2013-08-27 21:20:00,83.4,77.7,29.95,East,100,6.0,11.2,83,0.00,,---,0.00,0.00,VWS V14.01,2013-08-28 02:20:00,
2013-08-27 21:25:00,83.2,77.9,29.95,East,87,4.0,8.2,84,0.00,,---,0.00,0.00,VWS V14.01,2013-08-28 02:25:00,
2013-08-27 21:30:00,83.0,77.7,29.95,East,100,8.0,10.2,84,0.00,,---,0.00,0.00,VWS V14.01,2013-08-28 02:30:00,
2013-08-27 21:35:00,83.0,78.0,29.95,East,98,5.0,9.2,85,0.00,,---,0.00,0.00,VWS V14.01,2013-08-28 02:35:00,
2013-08-27 21:40:00,82.8,77.8,29.95,ESE,113,5.0,8.2,85,0.00,,---,0.00,0.00,VWS V14.01,2013-08-28 02:40:00,
2013-08-27 21:45:00,83.0,77.7,29.95,ESE,105,5.0,10.2,84,0.00,,---,0.00,0.00,VWS V14.01,2013-08-28 02:45:00,
2013-08-27 21:50:00,83.2,77.5,29.95,East,101,3.0,8.2,83,0.00,,---,0.00,0.00,VWS V14.01,2013-08-28 02:50:00,
2013-08-27 21:55:00,83.0,77.3,29.95,East,96,5.0,10.2,83,0.00,,---,0.00,0.00,VWS V14.01,2013-08-28 02:55:00,
2013-08-27 22:00:00,83.2,77.5,29.95,ESE,112,2.0,10.2,83,0.00,,---,0.00,0.00,VWS V14.01,2013-08-28 03:00:00,
2013-08-27 22:05:00,83.4,77.3,29.95,ESE,103,3.0,7.2,82,0.00,,---,0.00,0.00,VWS V14.01,2013-08-28 03:05:00,
2013-08-27 22:10:00,83.4,77.3,29.95,ESE,105,5.0,10.2,82,0.00,,---,0.00,0.00,VWS V14.01,2013-08-28 03:10:00,
2013-08-27 22:15:00,83.4,77.3,29.95,ENE,58,4.0,9.2,82,0.00,,---,0.00,0.00,VWS V14.01,2013-08-28 03:15:00,
2013-08-27 22:20:00,83.2,77.5,29.95,ENE,66,2.0,8.2,83,0.00,,---,0.00,0.00,VWS V14.01,2013-08-28 03:20:00,
2013-08-27 22:25:00,83.4,77.3,29.95,ESE,109,4.0,11.2,82,0.00,,---,0.00,0.00,VWS V14.01,2013-08-28 03:25:00,
2013-08-27 22:30:00,83.0,77.3,29.95,East,94,6.0,10.2,83,0.00,,---,0.00,0.00,VWS V14.01,2013-08-28 03:30:00,
2013-08-27 22:35:00,82.8,77.5,29.95,East,93,5.0,10.2,84,0.00,,---,0.00,0.00,VWS V14.01,2013-08-28 03:35:00,
2013-08-27 22:40:00,82.8,77.5,29.95,East,101,2.0,8.2,84,0.00,,---,0.00,0.00,VWS V14.01,2013-08-28 03:40:00,
2013-08-27 22:45:00,82.6,77.3,29.95,East,82,4.0,10.2,84,0.00,,---,0.00,0.00,VWS V14.01,2013-08-28 03:45:00,
2013-08-27 22:50:00,82.6,77.3,29.95,East,89,2.0,8.2,84,0.00,,---,0.00,0.00,VWS V14.01,2013-08-28 03:50:00,
2013-08-27 22:55:00,82.6,77.6,29.95,ESE,102,4.0,8.2,85,0.00,,---,0.00,0.00,VWS V14.01,2013-08-28 03:55:00,
2013-08-27 23:00:00,83.0,77.7,29.95,ESE,102,2.0,8.2,84,0.00,,---,0.00,0.00,VWS V14.01,2013-08-28 04:00:00,
2013-08-27 23:01:00,83.0,77.7,29.95,ESE,102,4.0,8.2,84,0.00,,---,0.00,0.00,VWS V14.01,2013-08-28 04:01:00,
2013-08-27 23:05:00,82.6,77.3,29.95,ESE,115,6.0,9.2,84,0.00,,---,0.00,0.00,VWS V14.01,2013-08-28 04:05:00,
2013-08-27 23:06:00,82.6,77.3,29.95,ESE,113,7.0,10.2,84,0.00,,---,0.00,0.00,VWS V14.01,2013-08-28 04:06:00,
2013-08-27 23:10:00,82.6,77.3,29.95,East,101,6.0,10.2,84,0.00,,---,0.00,0.00,VWS V14.01,2013-08-28 04:10:00,
2013-08-27 23:11:00,82.6,77.3,29.95,ESE,103,10.0,11.2,84,0.00,,---,0.00,0.00,VWS V14.01,2013-08-28 04:11:00,
2013-08-27 23:15:00,82.6,77.6,29.96,ESE,112,1.0,11.2,85,0.00,,---,0.00,0.00,VWS V14.01,2013-08-28 04:15:00,
2013-08-27 23:16:00,82.6,77.6,29.96,ESE,112,3.0,4.2,85,0.00,,---,0.00,0.00,VWS V14.01,2013-08-28 04:16:00,
2013-08-27 23:20:00,82.8,77.5,29.96,ESE,113,1.0,8.2,84,0.00,,---,0.00,0.00,VWS V14.01,2013-08-28 04:20:00,
2013-08-27 23:21:00,82.8,77.5,29.96,ESE,113,3.0,5.2,84,0.00,,---,0.00,0.00,VWS V14.01,2013-08-28 04:21:00,
2013-08-27 23:25:00,83.0,77.7,29.96,ESE,110,4.0,8.2,84,0.00,,---,0.00,0.00,VWS V14.01,2013-08-28 04:25:00,
2013-08-27 23:26:00,83.0,77.7,29.96,ESE,110,5.0,6.2,84,0.00,,---,0.00,0.00,VWS V14.01,2013-08-28 04:26:00,
2013-08-27 23:30:00,83.0,77.7,29.96,East,92,1.0,11.2,84,0.00,,---,0.00,0.00,VWS V14.01,2013-08-28 04:30:00,
2013-08-27 23:31:00,83.0,77.7,29.96,East,92,4.0,5.2,84,0.00,,---,0.00,0.00,VWS V14.01,2013-08-28 04:31:00,
2013-08-27 23:35:00,83.4,77.7,29.96,ESE,107,3.0,8.2,83,0.00,,---,0.00,0.00,VWS V14.01,2013-08-28 04:35:00,
2013-08-27 23:36:00,83.4,77.7,29.96,ESE,107,3.0,8.2,83,0.00,,---,0.00,0.00,VWS V14.01,2013-08-28 04:36:00,
2013-08-27 23:40:00,83.4,77.3,29.96,ESE,105,5.0,6.2,82,0.00,,---,0.00,0.00,VWS V14.01,2013-08-28 04:40:00,
2013-08-27 23:41:00,83.4,77.3,29.96,ESE,105,4.0,6.2,82,0.00,,---,0.00,0.00,VWS V14.01,2013-08-28 04:41:00,
2013-08-27 23:45:00,82.8,77.1,29.95,ESE,105,3.0,8.2,83,0.00,,---,0.00,0.00,VWS V14.01,2013-08-28 04:45:00,
2013-08-27 23:46:00,82.8,77.1,29.95,ESE,105,3.0,8.2,83,0.00,,---,0.00,0.00,VWS V14.01,2013-08-28 04:46:00,
2013-08-27 23:50:00,82.4,77.1,29.95,East,99,1.0,6.2,84,0.00,,---,0.00,0.00,VWS V14.01,2013-08-28 04:50:00,
2013-08-27 23:51:00,82.4,77.1,29.95,East,99,3.0,6.2,84,0.00,,---,0.00,0.00,VWS V14.01,2013-08-28 04:51:00,
2013-08-27 23:55:00,82.2,76.9,29.95,ESE,109,4.0,8.2,84,0.00,,---,0.00,0.00,VWS V14.01,2013-08-28 04:55:00,
2013-08-27 23:56:00,82.4,77.1,29.95,ESE,109,5.0,8.2,84,0.00,,---,0.00,0.00,VWS V14.01,2013-08-28 04:56:00,